createdAt,value
2022-10-23T00:01:46.920Z,1.73
2022-10-23T00:04:20.308Z,1.17
2022-10-23T00:06:48.835Z,1.33
2022-10-23T00:09:19.463Z,1.85
2022-10-23T00:11:48.455Z,1.33
2022-10-23T00:14:18.830Z,1.40
2022-10-23T00:16:46.339Z,1.58
2022-10-23T00:19:13.850Z,1.75
2022-10-23T00:21:41.415Z,1.25
2022-10-23T00:26:42.155Z,1.33
2022-10-23T00:29:11.358Z,1.25
2022-10-23T00:31:39.020Z,1.90
2022-10-23T00:34:08.564Z,1.20
2022-10-23T00:36:36.952Z,1.20
2022-10-23T00:39:05.509Z,1.30
2022-10-23T00:41:33.410Z,1.52
2022-10-23T00:44:05.980Z,0.98
2022-10-23T00:46:34.311Z,1.17
2022-10-23T00:49:03.506Z,1.75
2022-10-23T00:51:38.493Z,1.02
2022-10-23T00:56:59.416Z,1.10
2022-10-23T00:59:27.564Z,1.10
2022-10-23T01:01:55.465Z,1.38
2022-10-23T01:04:23.999Z,1.25
2022-10-23T01:07:08.252Z,1.00
2022-10-23T01:10:04.007Z,1.50
2022-10-23T01:12:47.494Z,1.30
2022-10-23T01:15:34.817Z,1.35
2022-10-23T01:21:00.552Z,2.00
2022-10-23T01:24:03.387Z,1.40
2022-10-23T01:27:17.902Z,1.33
2022-10-23T01:29:53.784Z,1.20
2022-10-23T01:32:40.495Z,1.33
2022-10-23T01:35:19.784Z,1.70
2022-10-23T01:38:06.706Z,1.15
2022-10-23T01:40:57.735Z,1.20
2022-10-23T01:43:30.302Z,1.05
2022-10-23T01:46:06.647Z,1.25
2022-10-23T01:48:38.321Z,1.45
2022-10-23T01:51:09.880Z,1.60
2022-10-23T01:53:41.748Z,1.00
2022-10-23T01:56:14.356Z,1.95
2022-10-23T01:58:45.673Z,1.00
2022-10-23T02:01:18.298Z,1.02
2022-10-23T02:06:18.477Z,1.88
2022-10-23T02:08:46.756Z,1.75
2022-10-23T02:11:16.812Z,1.52
2022-10-23T02:14:03.099Z,1.10
2022-10-23T02:16:30.566Z,1.55
2022-10-23T02:19:20.303Z,1.35
2022-10-23T02:21:54.625Z,2.15
2022-10-23T02:24:39.391Z,1.45
2022-10-23T02:27:15.552Z,2.00
2022-10-23T02:29:48.511Z,2.00
2022-10-23T02:32:20.583Z,1.45
2022-10-23T02:34:49.398Z,1.75
2022-10-23T02:37:17.272Z,1.35
2022-10-23T02:39:45.030Z,1.50
2022-10-23T02:42:42.645Z,1.40
2022-10-23T02:45:21.607Z,2.03
2022-10-23T02:48:14.848Z,1.83
2022-10-23T02:51:03.888Z,1.95
2022-10-23T02:53:46.411Z,1.88
2022-10-23T02:56:40.034Z,1.75
2022-10-23T02:59:24.710Z,2.05
2022-10-23T03:02:00.834Z,2.15
2022-10-23T03:04:29.579Z,3.10
2022-10-23T03:06:57.202Z,2.28
2022-10-23T03:09:26.509Z,1.67
2022-10-23T03:11:53.945Z,1.55
2022-10-23T03:14:21.461Z,2.00
2022-10-23T03:16:50.494Z,1.52
2022-10-23T03:19:18.078Z,1.40
2022-10-23T03:21:45.519Z,1.90
2022-10-23T03:24:13.173Z,2.05
2022-10-23T03:26:43.739Z,1.83
2022-10-23T03:29:11.263Z,1.90
2022-10-23T03:31:44.809Z,1.42
2022-10-23T03:34:13.701Z,1.75
2022-10-23T03:36:41.930Z,1.60
2022-10-23T03:39:10.919Z,1.65
2022-10-23T03:41:38.371Z,1.48
2022-10-23T03:44:05.884Z,1.75
2022-10-23T03:46:33.301Z,1.17
2022-10-23T03:49:00.895Z,1.20
2022-10-23T03:51:28.344Z,1.40
2022-10-23T03:53:58.158Z,1.40
2022-10-23T03:56:25.815Z,1.70
2022-10-23T03:58:53.301Z,1.85
2022-10-23T04:01:25.305Z,1.52
2022-10-23T04:03:52.844Z,1.05
2022-10-23T04:06:20.455Z,1.98
2022-10-23T04:08:48.084Z,1.85
2022-10-23T04:11:17.940Z,1.60
2022-10-23T04:13:47.093Z,2.22
2022-10-23T04:16:14.603Z,1.90
2022-10-23T04:18:42.630Z,1.95
2022-10-23T04:21:11.833Z,2.47
2022-10-23T04:23:39.741Z,2.85
2022-10-23T04:26:13.150Z,2.75
2022-10-23T04:28:40.752Z,2.60
2022-10-23T04:31:08.242Z,3.03
2022-10-23T04:33:35.712Z,2.22
2022-10-23T04:36:03.218Z,2.80
2022-10-23T04:38:30.630Z,2.53
2022-10-23T04:40:58.093Z,3.25
2022-10-23T04:43:25.608Z,3.30
2022-10-23T04:45:53.149Z,3.42
2022-10-23T04:48:25.550Z,2.85
2022-10-23T04:51:14.490Z,3.28
2022-10-23T04:53:58.836Z,4.10
2022-10-23T04:56:36.777Z,2.67
2022-10-23T04:59:08.539Z,3.20
2022-10-23T05:01:37.605Z,2.97
2022-10-23T05:04:07.656Z,2.55
2022-10-23T05:06:44.498Z,2.30
2022-10-23T05:09:18.634Z,2.53
2022-10-23T05:12:00.014Z,2.47
2022-10-23T05:14:27.574Z,2.53
2022-10-23T05:17:08.109Z,2.90
2022-10-23T05:19:41.764Z,2.20
2022-10-23T05:22:10.684Z,2.33
2022-10-23T05:24:50.934Z,2.50
2022-10-23T05:27:22.589Z,2.05
2022-10-23T05:29:51.894Z,1.95
2022-10-23T05:32:25.752Z,1.48
2022-10-23T05:34:54.563Z,2.13
2022-10-23T05:37:25.483Z,2.08
2022-10-23T05:40:01.010Z,1.80
2022-10-23T05:42:28.488Z,1.85
2022-10-23T05:44:57.646Z,1.75
2022-10-23T05:47:47.302Z,2.28
2022-10-23T05:50:38.201Z,2.10
2022-10-23T05:53:26.555Z,1.60
2022-10-23T05:56:16.266Z,2.33
2022-10-23T05:59:07.825Z,1.98
2022-10-23T06:02:01.487Z,1.98
2022-10-23T06:04:43.697Z,2.40
2022-10-23T06:07:40.696Z,1.92
2022-10-23T06:10:08.784Z,1.92
2022-10-23T06:12:40.787Z,2.22
2022-10-23T06:15:11.326Z,2.45
2022-10-23T06:18:05.736Z,2.03
2022-10-23T06:20:37.577Z,3.63
2022-10-23T06:23:10.718Z,2.10
2022-10-23T06:26:18.959Z,2.13
2022-10-23T06:29:09.272Z,2.60
2022-10-23T06:31:37.445Z,1.80
2022-10-23T06:34:06.197Z,1.98
2022-10-23T06:36:33.942Z,2.50
2022-10-23T06:39:11.667Z,1.90
2022-10-23T06:42:08.457Z,2.28
2022-10-23T06:44:56.505Z,2.00
2022-10-23T06:47:44.141Z,1.88
2022-10-23T06:50:33.093Z,1.85
2022-10-23T06:53:06.084Z,1.53
2022-10-23T06:55:35.748Z,2.10
2022-10-23T06:58:04.616Z,1.88
2022-10-23T07:00:32.131Z,1.90
2022-10-23T07:03:00.519Z,1.55
2022-10-23T07:05:28.109Z,2.10
2022-10-23T07:07:55.724Z,1.70
2022-10-23T07:10:26.812Z,1.70
2022-10-23T07:13:01.141Z,1.75
2022-10-23T07:15:38.164Z,1.88
2022-10-23T07:18:07.037Z,1.40
2022-10-23T07:20:59.496Z,1.63
2022-10-23T07:23:27.104Z,1.73
2022-10-23T07:25:55.205Z,2.22
2022-10-23T07:28:24.069Z,2.08
2022-10-23T07:31:00.137Z,2.60
2022-10-23T07:33:43.647Z,1.85
2022-10-23T07:36:17.918Z,2.38
2022-10-23T07:38:46.005Z,2.05
2022-10-23T07:41:13.600Z,1.90
2022-10-23T07:43:41.227Z,1.75
2022-10-23T07:46:12.221Z,2.22
2022-10-23T07:48:40.933Z,1.77
2022-10-23T07:51:13.331Z,1.55
2022-10-23T07:53:50.779Z,1.90
2022-10-23T07:56:41.097Z,2.42
2022-10-23T07:59:15.426Z,2.05
2022-10-23T08:01:51.556Z,2.47
2022-10-23T08:04:22.644Z,2.30
2022-10-23T08:06:58.781Z,1.83
2022-10-23T08:09:26.694Z,2.67
2022-10-23T08:11:54.380Z,1.80
2022-10-23T08:14:24.447Z,3.00
2022-10-23T08:16:52.147Z,2.05
2022-10-23T08:19:39.596Z,2.25
2022-10-23T08:22:07.746Z,2.03
2022-10-23T08:24:35.173Z,2.05
2022-10-23T08:27:02.691Z,2.22
2022-10-23T08:29:31.637Z,2.47
2022-10-23T08:31:59.853Z,2.55
2022-10-23T08:34:37.953Z,2.30
2022-10-23T08:37:05.618Z,2.75
2022-10-23T08:39:34.961Z,2.10
2022-10-23T08:42:23.701Z,1.98
2022-10-23T08:45:18.099Z,3.47
2022-10-23T08:47:50.203Z,2.38
2022-10-23T08:50:44.395Z,2.55
2022-10-23T08:53:22.470Z,1.90
2022-10-23T08:56:02.882Z,2.67
2022-10-23T08:58:46.198Z,2.20
2022-10-23T09:01:49.653Z,2.83
2022-10-23T09:04:17.283Z,1.92
2022-10-23T09:07:12.931Z,2.17
2022-10-23T09:10:04.997Z,2.25
2022-10-23T09:12:32.918Z,2.13
2022-10-23T09:15:10.424Z,2.17
2022-10-23T09:17:43.511Z,3.45
2022-10-23T09:20:22.083Z,2.17
2022-10-23T09:22:54.984Z,2.22
2022-10-23T09:25:25.885Z,2.45
2022-10-23T09:28:02.772Z,2.05
2022-10-23T09:30:35.785Z,2.45
2022-10-23T09:33:27.185Z,2.50
2022-10-23T09:36:05.450Z,2.67
2022-10-23T09:38:34.303Z,3.40
2022-10-23T09:41:14.558Z,2.72
2022-10-23T09:43:43.234Z,3.00
2022-10-23T09:46:12.746Z,2.42
2022-10-23T09:48:42.485Z,3.30
2022-10-23T09:51:19.421Z,3.80
2022-10-23T09:53:52.011Z,2.83
2022-10-23T09:56:25.785Z,2.63
2022-10-23T09:59:11.800Z,2.72
2022-10-23T10:01:53.004Z,2.88
2022-10-23T10:04:43.411Z,2.97
2022-10-23T10:07:23.748Z,2.88
2022-10-23T10:09:53.787Z,2.63
2022-10-23T10:12:30.229Z,3.30
2022-10-23T10:15:03.727Z,3.00
2022-10-23T10:17:47.826Z,3.30
2022-10-23T10:20:18.102Z,3.03
2022-10-23T10:23:30.256Z,3.85
2022-10-23T10:26:06.410Z,2.72
2022-10-23T10:28:39.769Z,2.58
2022-10-23T10:31:07.218Z,2.35
2022-10-23T10:34:19.817Z,4.05
2022-10-23T10:36:51.904Z,3.17
2022-10-23T10:39:34.357Z,3.10
2022-10-23T10:42:30.975Z,3.22
2022-10-23T10:45:19.023Z,2.97
2022-10-23T10:48:04.148Z,2.75
2022-10-23T10:51:27.596Z,2.63
2022-10-23T10:54:19.706Z,2.90
2022-10-23T10:56:48.479Z,2.80
2022-10-23T10:59:30.491Z,2.90
2022-10-23T11:02:27.337Z,2.80
2022-10-23T11:05:06.422Z,3.22
2022-10-23T11:07:40.786Z,3.15
2022-10-23T11:10:17.822Z,2.85
2022-10-23T11:12:47.067Z,2.80
2022-10-23T11:15:27.393Z,3.47
2022-10-23T11:18:01.999Z,4.60
2022-10-23T11:20:47.284Z,4.22
2022-10-23T11:23:26.688Z,4.07
2022-10-23T11:26:08.890Z,4.38
2022-10-23T11:29:12.851Z,4.20
2022-10-23T11:31:55.046Z,4.60
2022-10-23T11:34:53.631Z,4.80
2022-10-23T11:37:22.606Z,4.03
2022-10-23T11:40:08.207Z,5.45
2022-10-23T11:42:41.767Z,4.07
2022-10-23T11:45:30.970Z,5.22
2022-10-23T11:48:01.573Z,5.68
2022-10-23T11:50:51.981Z,4.82
2022-10-23T11:53:28.837Z,5.65
2022-10-23T11:56:14.736Z,7.75
2022-10-23T11:58:48.715Z,6.95
2022-10-23T12:01:41.470Z,7.65
2022-10-23T12:04:15.193Z,6.50
2022-10-23T12:06:59.924Z,6.70
2022-10-23T12:09:46.580Z,6.18
2022-10-23T12:12:17.785Z,10.68
2022-10-23T12:14:51.274Z,6.05
2022-10-23T12:17:40.218Z,4.95
2022-10-23T12:20:11.131Z,5.70
2022-10-23T12:23:18.816Z,9.10
2022-10-23T12:26:07.794Z,8.57
2022-10-23T12:29:09.266Z,7.47
2022-10-23T12:32:03.114Z,8.27
2022-10-23T12:34:39.773Z,6.15
2022-10-23T12:37:15.877Z,7.22
2022-10-23T12:42:21.235Z,7.95
2022-10-23T12:45:20.784Z,8.88
2022-10-23T12:47:49.661Z,9.65
2022-10-23T12:50:21.903Z,12.52
2022-10-23T12:53:01.011Z,8.55
2022-10-23T12:55:49.560Z,9.27
2022-10-23T12:58:32.938Z,10.68
2022-10-23T13:01:05.546Z,6.75
2022-10-23T13:03:34.536Z,6.85
2022-10-23T13:06:03.372Z,6.75
2022-10-23T13:08:39.218Z,10.20
2022-10-23T13:11:28.578Z,11.60
2022-10-23T13:13:59.028Z,10.63
2022-10-23T13:16:27.147Z,9.30
2022-10-23T13:18:54.737Z,6.85
2022-10-23T13:21:28.734Z,6.80
2022-10-23T13:23:56.841Z,7.38
2022-10-23T13:26:30.306Z,7.13
2022-10-23T13:28:58.711Z,6.68
2022-10-23T13:31:35.283Z,7.32
2022-10-23T13:34:02.750Z,8.30
2022-10-23T13:36:34.661Z,7.95
2022-10-23T13:39:15.153Z,7.82
2022-10-23T13:41:47.025Z,8.05
2022-10-23T13:44:17.723Z,7.50
2022-10-23T13:46:46.214Z,8.68
2022-10-23T13:49:13.741Z,7.50
2022-10-23T13:51:47.693Z,6.57
2022-10-23T13:54:18.630Z,5.22
2022-10-23T13:56:46.729Z,4.82
2022-10-23T13:59:15.197Z,8.15
2022-10-23T14:01:43.743Z,5.45
2022-10-23T14:04:12.173Z,6.53
2022-10-23T14:06:40.107Z,5.80
2022-10-23T14:09:10.969Z,5.53
2022-10-23T14:11:39.178Z,5.82
2022-10-23T14:14:07.157Z,6.55
2022-10-23T14:16:34.698Z,5.78
2022-10-23T14:19:02.109Z,6.65
2022-10-23T14:21:29.677Z,5.72
2022-10-23T14:23:57.702Z,5.75
2022-10-23T14:26:30.825Z,5.15
2022-10-23T14:29:02.317Z,5.25
2022-10-23T14:34:01.831Z,4.72
2022-10-23T14:36:38.565Z,4.47
2022-10-23T14:39:17.404Z,4.28
2022-10-23T14:41:44.855Z,5.03
2022-10-23T14:44:12.302Z,6.63
2022-10-23T14:46:39.768Z,5.50
2022-10-23T14:49:07.288Z,5.43
2022-10-23T14:51:35.349Z,5.45
2022-10-23T14:54:04.951Z,6.57
2022-10-23T14:56:35.533Z,6.18
2022-10-23T14:59:03.332Z,5.22
2022-10-23T15:01:32.959Z,6.90
2022-10-23T15:04:00.565Z,6.13
2022-10-23T15:06:28.126Z,5.10
2022-10-23T15:08:56.334Z,5.32
2022-10-23T15:11:24.467Z,4.90
2022-10-23T15:13:52.286Z,5.20
2022-10-23T15:16:19.830Z,4.88
2022-10-23T15:18:47.394Z,7.82
2022-10-23T15:21:15.004Z,6.00
2022-10-23T15:23:44.043Z,5.78
2022-10-23T15:26:21.128Z,6.13
2022-10-23T15:28:53.783Z,7.47
2022-10-23T15:31:44.563Z,5.20
2022-10-23T15:34:18.747Z,4.35
2022-10-23T15:36:47.256Z,4.63
2022-10-23T15:39:18.539Z,6.75
2022-10-23T15:41:46.067Z,4.22
2022-10-23T15:44:16.650Z,5.65
2022-10-23T15:46:44.183Z,6.18
2022-10-23T15:49:12.439Z,6.53
2022-10-23T15:51:40.877Z,4.53
2022-10-23T15:54:11.144Z,7.43
2022-10-23T15:56:38.644Z,5.70
2022-10-23T15:59:06.094Z,7.13
2022-10-23T16:01:33.691Z,4.88
2022-10-23T16:04:02.139Z,4.68
2022-10-23T16:06:29.582Z,4.40
2022-10-23T16:08:57.259Z,4.93
2022-10-23T16:11:28.683Z,6.70
2022-10-23T16:13:57.565Z,7.50
2022-10-23T16:16:25.355Z,4.55
2022-10-23T16:18:52.928Z,5.90
2022-10-23T16:21:29.231Z,4.05
2022-10-23T16:23:59.135Z,3.88
2022-10-23T16:26:27.525Z,3.92
2022-10-23T16:29:00.984Z,3.28
2022-10-23T16:31:29.801Z,5.65
2022-10-23T16:33:59.352Z,3.15
2022-10-23T16:36:27.191Z,3.42
2022-10-23T16:39:19.236Z,4.63
2022-10-23T16:42:06.086Z,5.25
2022-10-23T16:44:47.242Z,4.60
2022-10-23T16:47:14.857Z,5.00
2022-10-23T16:49:42.390Z,3.55
2022-10-23T16:52:10.108Z,3.80
2022-10-23T16:54:37.603Z,8.73
2022-10-23T16:57:05.140Z,3.58
2022-10-23T16:59:32.607Z,4.90
2022-10-23T17:02:00.286Z,4.10
2022-10-23T17:04:28.023Z,4.55
2022-10-23T17:06:55.675Z,3.53
2022-10-23T17:09:23.764Z,4.40
2022-10-23T17:11:53.080Z,3.72
2022-10-23T17:14:21.306Z,4.85
2022-10-23T17:16:51.506Z,3.70
2022-10-23T17:19:40.164Z,3.58
2022-10-23T17:22:10.835Z,2.63
2022-10-23T17:24:44.220Z,2.85
2022-10-23T17:27:13.860Z,2.85
2022-10-23T17:29:41.352Z,3.22
2022-10-23T17:32:08.976Z,4.25
2022-10-23T17:34:36.512Z,2.50
2022-10-23T17:37:04.064Z,2.95
2022-10-23T17:39:31.479Z,4.78
2022-10-23T17:41:59.122Z,2.97
2022-10-23T17:44:26.859Z,3.03
2022-10-23T17:46:55.368Z,4.05
2022-10-23T17:49:23.701Z,5.97
2022-10-23T17:51:53.824Z,6.78
2022-10-23T17:54:22.511Z,4.65
2022-10-23T17:56:49.907Z,6.72
2022-10-23T17:59:21.024Z,5.32
2022-10-23T18:01:49.437Z,2.80
2022-10-23T18:04:19.406Z,3.58
2022-10-23T18:06:50.752Z,3.22
2022-10-23T18:09:19.335Z,3.58
2022-10-23T18:11:48.313Z,5.75
2022-10-23T18:14:20.532Z,4.25
2022-10-23T18:16:48.486Z,9.13
2022-10-23T18:19:18.286Z,4.97
2022-10-23T18:21:47.041Z,6.35
2022-10-23T18:24:15.034Z,4.43
2022-10-23T18:26:43.050Z,7.47
2022-10-23T18:29:12.765Z,8.95
2022-10-23T18:31:41.143Z,6.68
2022-10-23T18:34:20.344Z,8.52
2022-10-23T18:36:49.257Z,6.88
2022-10-23T18:39:19.338Z,8.43
2022-10-23T18:41:46.810Z,5.47
2022-10-23T18:44:17.429Z,8.52
2022-10-23T18:46:46.748Z,8.18
2022-10-23T18:49:15.122Z,7.78
2022-10-23T18:51:42.832Z,6.25
2022-10-23T18:54:16.485Z,7.88
2022-10-23T18:56:44.537Z,6.90
2022-10-23T18:59:14.967Z,6.65
2022-10-23T19:01:43.392Z,4.80
2022-10-23T19:04:12.703Z,7.72
2022-10-23T19:06:40.550Z,6.35
2022-10-23T19:09:09.718Z,6.07
2022-10-23T19:11:37.522Z,5.00
2022-10-23T19:14:05.705Z,6.40
2022-10-23T19:16:58.500Z,7.35
2022-10-23T19:19:30.605Z,6.07
2022-10-23T19:21:58.961Z,4.60
2022-10-23T19:24:32.336Z,5.00
2022-10-23T19:27:01.060Z,4.13
2022-10-23T19:29:29.716Z,5.10
2022-10-23T19:31:57.289Z,6.65
2022-10-23T19:34:25.172Z,10.18
2022-10-23T19:36:54.759Z,8.57
2022-10-23T19:39:23.224Z,6.93
2022-10-23T19:41:51.749Z,9.15
2022-10-23T19:44:20.077Z,6.70
2022-10-23T19:46:48.424Z,8.88
2022-10-23T19:49:16.255Z,7.80
2022-10-23T19:51:50.408Z,8.77
2022-10-23T19:54:20.255Z,7.85
2022-10-23T19:56:48.576Z,7.22
2022-10-23T19:59:16.597Z,6.28
2022-10-23T20:01:47.855Z,7.15
2022-10-23T20:04:18.303Z,5.40
2022-10-23T20:06:46.644Z,7.65
2022-10-23T20:09:14.152Z,5.97
2022-10-23T20:11:41.674Z,5.40
2022-10-23T20:14:09.271Z,5.05
2022-10-23T20:16:38.738Z,6.03
2022-10-23T20:19:09.263Z,4.85
2022-10-23T20:21:38.757Z,5.50
2022-10-23T20:24:07.440Z,6.22
2022-10-23T20:26:35.175Z,5.88
2022-10-23T20:29:02.574Z,4.82
2022-10-23T20:31:30.071Z,3.85
2022-10-23T20:33:57.567Z,4.43
2022-10-23T20:36:30.529Z,3.85
2022-10-23T20:39:01.245Z,3.42
2022-10-23T20:41:29.093Z,4.53
2022-10-23T20:43:56.672Z,3.78
2022-10-23T20:46:24.437Z,3.67
2022-10-23T20:48:52.571Z,3.13
2022-10-23T20:51:22.384Z,4.28
2022-10-23T20:53:51.422Z,5.20
2022-10-23T20:56:23.603Z,3.47
2022-10-23T20:58:51.092Z,4.45
2022-10-23T21:01:18.790Z,4.30
2022-10-23T21:03:51.489Z,5.60
2022-10-23T21:06:19.955Z,3.85
2022-10-23T21:08:47.669Z,4.93
2022-10-23T21:11:16.633Z,3.45
2022-10-23T21:13:44.607Z,3.45
2022-10-23T21:16:22.560Z,3.17
2022-10-23T21:18:52.713Z,3.63
2022-10-23T21:21:21.407Z,3.75
2022-10-23T21:23:51.371Z,4.65
2022-10-23T21:26:20.766Z,4.47
2022-10-23T21:28:56.276Z,5.65
2022-10-23T21:31:37.518Z,5.38
2022-10-23T21:34:05.406Z,5.15
2022-10-23T21:36:39.781Z,5.30
2022-10-23T21:39:11.318Z,4.00
2022-10-23T21:41:38.900Z,5.53
2022-10-23T21:44:06.513Z,4.55
2022-10-23T21:46:35.262Z,5.05
2022-10-23T21:49:03.509Z,6.15
2022-10-23T21:51:37.403Z,4.05
2022-10-23T21:54:11.413Z,5.47
2022-10-23T21:56:50.374Z,5.05
2022-10-23T21:59:20.527Z,5.65
2022-10-23T22:01:49.136Z,5.43
2022-10-23T22:04:18.725Z,4.40
2022-10-23T22:06:47.973Z,3.78
2022-10-23T22:09:19.518Z,3.90
2022-10-23T22:11:49.863Z,3.65
2022-10-23T22:14:17.667Z,3.95
2022-10-23T22:16:45.187Z,3.35
2022-10-23T22:19:14.281Z,3.63
2022-10-23T22:21:42.201Z,2.90
2022-10-23T22:24:10.334Z,3.28
2022-10-23T22:26:43.116Z,3.38
2022-10-23T22:29:14.279Z,3.63
2022-10-23T22:31:45.506Z,2.35
2022-10-23T22:34:47.765Z,3.35
2022-10-23T22:37:11.468Z,4.90
2022-10-23T22:39:39.213Z,3.45
2022-10-23T22:42:07.082Z,3.13
2022-10-23T22:44:34.619Z,3.30
2022-10-23T22:47:02.151Z,3.45
2022-10-23T22:49:29.750Z,3.25
2022-10-23T22:51:57.203Z,3.70
2022-10-23T22:54:24.912Z,3.15
2022-10-23T22:56:52.635Z,3.75
2022-10-23T22:59:20.145Z,2.70
2022-10-23T23:01:48.504Z,3.10
2022-10-23T23:07:08.058Z,3.72
2022-10-23T23:09:40.967Z,2.53
2022-10-23T23:12:09.855Z,3.47
2022-10-23T23:14:37.731Z,2.88
2022-10-23T23:17:06.283Z,3.38
2022-10-23T23:19:34.743Z,4.38
2022-10-23T23:22:02.286Z,3.92
2022-10-23T23:24:29.884Z,4.93
2022-10-23T23:26:57.515Z,3.00
2022-10-23T23:29:25.713Z,4.03
2022-10-23T23:31:53.291Z,3.22
2022-10-23T23:34:21.397Z,3.83
2022-10-23T23:36:48.858Z,3.55
2022-10-23T23:39:16.358Z,2.65
2022-10-23T23:41:43.836Z,4.13
2022-10-23T23:44:11.431Z,3.20
2022-10-23T23:46:38.938Z,2.60
2022-10-23T23:49:06.369Z,3.33
2022-10-23T23:51:33.856Z,2.72
2022-10-23T23:54:01.409Z,2.75
2022-10-23T23:56:28.922Z,3.78
2022-10-23T23:58:58.591Z,4.70
